sensor_id;sensor_type;location;lat;lon;timestamp;P1;durP1;ratioP1;P2;durP2;ratioP2
842;SDS011;407;48.884;9.126;2023-07-22T00:00:24;6.38;;;2.00;;
842;SDS011;407;48.884;9.126;2023-07-22T00:02:50;6.32;;;2.05;;
842;SDS011;407;48.884;9.126;2023-07-22T00:05:16;5.57;;;1.75;;
842;SDS011;407;48.884;9.126;2023-07-22T00:07:47;6.70;;;2.08;;
842;SDS011;407;48.884;9.126;2023-07-22T00:10:12;6.70;;;2.20;;
842;SDS011;407;48.884;9.126;2023-07-22T00:12:38;6.60;;;1.70;;
842;SDS011;407;48.884;9.126;2023-07-22T00:15:03;6.00;;;1.70;;
842;SDS011;407;48.884;9.126;2023-07-22T00:17:30;6.43;;;1.85;;
842;SDS011;407;48.884;9.126;2023-07-22T00:19:55;5.87;;;2.10;;
842;SDS011;407;48.884;9.126;2023-07-22T00:22:21;8.17;;;1.70;;
842;SDS011;407;48.884;9.126;2023-07-22T00:24:46;6.10;;;1.90;;
842;SDS011;407;48.884;9.126;2023-07-22T00:27:12;5.30;;;1.50;;
842;SDS011;407;48.884;9.126;2023-07-22T00:29:38;5.90;;;2.20;;
842;SDS011;407;48.884;9.126;2023-07-22T00:32:05;6.72;;;2.30;;
842;SDS011;407;48.884;9.126;2023-07-22T00:34:32;9.32;;;2.00;;
842;SDS011;407;48.884;9.126;2023-07-22T00:36:57;6.00;;;1.90;;
842;SDS011;407;48.884;9.126;2023-07-22T00:39:24;5.95;;;1.58;;
842;SDS011;407;48.884;9.126;2023-07-22T00:41:49;6.10;;;2.00;;
842;SDS011;407;48.884;9.126;2023-07-22T00:44:15;6.27;;;2.10;;
842;SDS011;407;48.884;9.126;2023-07-22T00:46:40;5.35;;;1.90;;
842;SDS011;407;48.884;9.126;2023-07-22T00:49:06;10.07;;;2.08;;
842;SDS011;407;48.884;9.126;2023-07-22T00:51:33;5.90;;;1.80;;
842;SDS011;407;48.884;9.126;2023-07-22T00:53:58;6.28;;;2.08;;
842;SDS011;407;48.884;9.126;2023-07-22T00:56:24;6.63;;;1.73;;
842;SDS011;407;48.884;9.126;2023-07-22T00:58:50;5.57;;;1.75;;
842;SDS011;407;48.884;9.126;2023-07-22T01:01:16;5.60;;;1.70;;
842;SDS011;407;48.884;9.126;2023-07-22T01:03:42;6.63;;;1.85;;
842;SDS011;407;48.884;9.126;2023-07-22T01:06:08;5.50;;;1.75;;
842;SDS011;407;48.884;9.126;2023-07-22T01:08:34;5.80;;;1.80;;
842;SDS011;407;48.884;9.126;2023-07-22T01:11:00;5.97;;;1.80;;
842;SDS011;407;48.884;9.126;2023-07-22T01:13:26;6.85;;;1.90;;
842;SDS011;407;48.884;9.126;2023-07-22T01:15:51;5.80;;;2.03;;
842;SDS011;407;48.884;9.126;2023-07-22T01:18:17;6.50;;;2.00;;
842;SDS011;407;48.884;9.126;2023-07-22T01:20:43;6.50;;;2.03;;
842;SDS011;407;48.884;9.126;2023-07-22T01:23:09;7.20;;;2.20;;
842;SDS011;407;48.884;9.126;2023-07-22T01:25:36;6.80;;;2.17;;
842;SDS011;407;48.884;9.126;2023-07-22T01:28:01;5.97;;;1.90;;
842;SDS011;407;48.884;9.126;2023-07-22T01:30:27;5.57;;;1.90;;
842;SDS011;407;48.884;9.126;2023-07-22T01:32:53;6.97;;;2.17;;
842;SDS011;407;48.884;9.126;2023-07-22T01:35:18;7.47;;;1.88;;
842;SDS011;407;48.884;9.126;2023-07-22T01:37:44;5.70;;;1.80;;
842;SDS011;407;48.884;9.126;2023-07-22T01:40:11;5.78;;;1.90;;
842;SDS011;407;48.884;9.126;2023-07-22T01:42:38;10.90;;;2.10;;
842;SDS011;407;48.884;9.126;2023-07-22T01:45:04;6.20;;;1.88;;
842;SDS011;407;48.884;9.126;2023-07-22T01:47:32;5.57;;;1.80;;
842;SDS011;407;48.884;9.126;2023-07-22T01:49:59;6.90;;;1.90;;
842;SDS011;407;48.884;9.126;2023-07-22T01:52:25;5.60;;;2.00;;
842;SDS011;407;48.884;9.126;2023-07-22T01:54:50;5.50;;;1.90;;
842;SDS011;407;48.884;9.126;2023-07-22T01:57:16;10.90;;;2.25;;
842;SDS011;407;48.884;9.126;2023-07-22T01:59:41;6.03;;;2.20;;
842;SDS011;407;48.884;9.126;2023-07-22T02:02:07;7.63;;;2.07;;
842;SDS011;407;48.884;9.126;2023-07-22T02:04:32;7.50;;;1.93;;
842;SDS011;407;48.884;9.126;2023-07-22T02:06:58;5.83;;;1.77;;
842;SDS011;407;48.884;9.126;2023-07-22T02:09:23;6.03;;;2.00;;
842;SDS011;407;48.884;9.126;2023-07-22T02:11:49;6.57;;;2.10;;
842;SDS011;407;48.884;9.126;2023-07-22T02:14:14;6.30;;;1.70;;
842;SDS011;407;48.884;9.126;2023-07-22T02:16:40;7.28;;;2.03;;
842;SDS011;407;48.884;9.126;2023-07-22T02:19:05;5.73;;;1.87;;
842;SDS011;407;48.884;9.126;2023-07-22T02:21:31;7.00;;;1.97;;
842;SDS011;407;48.884;9.126;2023-07-22T02:23:56;6.93;;;2.40;;
842;SDS011;407;48.884;9.126;2023-07-22T02:26:22;5.55;;;2.00;;
842;SDS011;407;48.884;9.126;2023-07-22T02:28:47;6.93;;;1.75;;
842;SDS011;407;48.884;9.126;2023-07-22T02:31:13;6.30;;;2.25;;
842;SDS011;407;48.884;9.126;2023-07-22T02:33:38;8.50;;;1.80;;
842;SDS011;407;48.884;9.126;2023-07-22T02:36:04;6.63;;;2.47;;
842;SDS011;407;48.884;9.126;2023-07-22T02:38:30;7.20;;;2.20;;
842;SDS011;407;48.884;9.126;2023-07-22T02:41:01;5.80;;;1.95;;
842;SDS011;407;48.884;9.126;2023-07-22T02:43:27;5.85;;;2.10;;
842;SDS011;407;48.884;9.126;2023-07-22T02:45:53;6.30;;;1.83;;
842;SDS011;407;48.884;9.126;2023-07-22T02:48:18;6.07;;;2.08;;
842;SDS011;407;48.884;9.126;2023-07-22T02:50:44;6.68;;;2.55;;
842;SDS011;407;48.884;9.126;2023-07-22T02:53:10;6.50;;;2.30;;
842;SDS011;407;48.884;9.126;2023-07-22T02:55:36;9.77;;;2.67;;
842;SDS011;407;48.884;9.126;2023-07-22T02:58:01;6.70;;;2.40;;
842;SDS011;407;48.884;9.126;2023-07-22T03:00:27;6.23;;;2.30;;
842;SDS011;407;48.884;9.126;2023-07-22T03:02:54;6.22;;;2.20;;
842;SDS011;407;48.884;9.126;2023-07-22T03:05:25;6.38;;;1.92;;
842;SDS011;407;48.884;9.126;2023-07-22T03:07:53;6.60;;;2.38;;
842;SDS011;407;48.884;9.126;2023-07-22T03:10:18;6.23;;;1.97;;
842;SDS011;407;48.884;9.126;2023-07-22T03:12:44;7.38;;;2.80;;
842;SDS011;407;48.884;9.126;2023-07-22T03:15:09;6.10;;;1.77;;
842;SDS011;407;48.884;9.126;2023-07-22T03:17:37;5.47;;;1.88;;
842;SDS011;407;48.884;9.126;2023-07-22T03:20:04;6.40;;;2.22;;
842;SDS011;407;48.884;9.126;2023-07-22T03:22:39;6.20;;;2.30;;
842;SDS011;407;48.884;9.126;2023-07-22T03:25:06;7.40;;;2.10;;
842;SDS011;407;48.884;9.126;2023-07-22T03:27:34;6.60;;;2.30;;
842;SDS011;407;48.884;9.126;2023-07-22T03:30:00;9.48;;;2.40;;
842;SDS011;407;48.884;9.126;2023-07-22T03:32:26;5.95;;;2.45;;
842;SDS011;407;48.884;9.126;2023-07-22T03:34:51;9.32;;;2.20;;
842;SDS011;407;48.884;9.126;2023-07-22T03:37:17;6.60;;;2.37;;
842;SDS011;407;48.884;9.126;2023-07-22T03:39:44;6.53;;;2.10;;
842;SDS011;407;48.884;9.126;2023-07-22T03:42:10;6.23;;;2.40;;
842;SDS011;407;48.884;9.126;2023-07-22T03:44:35;6.70;;;2.27;;
842;SDS011;407;48.884;9.126;2023-07-22T03:47:01;5.70;;;2.10;;
842;SDS011;407;48.884;9.126;2023-07-22T03:49:26;7.07;;;2.40;;
842;SDS011;407;48.884;9.126;2023-07-22T03:51:52;7.40;;;2.10;;
842;SDS011;407;48.884;9.126;2023-07-22T03:54:17;7.00;;;2.40;;
842;SDS011;407;48.884;9.126;2023-07-22T03:56:43;6.03;;;2.50;;
842;SDS011;407;48.884;9.126;2023-07-22T03:59:08;6.53;;;2.05;;
842;SDS011;407;48.884;9.126;2023-07-22T04:01:34;7.03;;;2.35;;
842;SDS011;407;48.884;9.126;2023-07-22T04:03:59;6.60;;;2.60;;
842;SDS011;407;48.884;9.126;2023-07-22T04:06:25;7.17;;;2.30;;
842;SDS011;407;48.884;9.126;2023-07-22T04:08:51;6.67;;;2.27;;
842;SDS011;407;48.884;9.126;2023-07-22T04:11:17;6.63;;;2.45;;
842;SDS011;407;48.884;9.126;2023-07-22T04:13:42;7.93;;;2.13;;
842;SDS011;407;48.884;9.126;2023-07-22T04:16:08;7.63;;;2.30;;
842;SDS011;407;48.884;9.126;2023-07-22T04:18:33;7.67;;;2.40;;
842;SDS011;407;48.884;9.126;2023-07-22T04:20:59;6.13;;;2.30;;
842;SDS011;407;48.884;9.126;2023-07-22T04:23:25;6.53;;;2.20;;
842;SDS011;407;48.884;9.126;2023-07-22T04:25:51;6.05;;;2.17;;
842;SDS011;407;48.884;9.126;2023-07-22T04:28:17;5.53;;;2.08;;
842;SDS011;407;48.884;9.126;2023-07-22T04:30:42;6.57;;;2.38;;
842;SDS011;407;48.884;9.126;2023-07-22T04:33:08;6.53;;;2.53;;
842;SDS011;407;48.884;9.126;2023-07-22T04:35:38;6.55;;;2.17;;
842;SDS011;407;48.884;9.126;2023-07-22T04:38:05;6.70;;;2.10;;
842;SDS011;407;48.884;9.126;2023-07-22T04:40:31;6.60;;;2.33;;
842;SDS011;407;48.884;9.126;2023-07-22T04:42:57;6.90;;;2.10;;
842;SDS011;407;48.884;9.126;2023-07-22T04:45:22;6.85;;;2.97;;
842;SDS011;407;48.884;9.126;2023-07-22T04:47:52;7.93;;;2.47;;
842;SDS011;407;48.884;9.126;2023-07-22T04:50:17;7.47;;;2.33;;
842;SDS011;407;48.884;9.126;2023-07-22T04:52:46;7.63;;;2.37;;
842;SDS011;407;48.884;9.126;2023-07-22T04:55:13;6.85;;;2.20;;
842;SDS011;407;48.884;9.126;2023-07-22T04:57:39;5.65;;;1.80;;
842;SDS011;407;48.884;9.126;2023-07-22T05:00:06;6.35;;;2.35;;
842;SDS011;407;48.884;9.126;2023-07-22T05:02:38;6.57;;;2.20;;
842;SDS011;407;48.884;9.126;2023-07-22T05:05:04;8.48;;;3.05;;
842;SDS011;407;48.884;9.126;2023-07-22T05:07:29;9.55;;;2.80;;
842;SDS011;407;48.884;9.126;2023-07-22T05:09:55;6.90;;;2.70;;
842;SDS011;407;48.884;9.126;2023-07-22T05:12:20;7.30;;;2.40;;
842;SDS011;407;48.884;9.126;2023-07-22T05:14:46;6.90;;;2.40;;
842;SDS011;407;48.884;9.126;2023-07-22T05:17:11;7.60;;;2.47;;
842;SDS011;407;48.884;9.126;2023-07-22T05:19:37;8.47;;;2.30;;
842;SDS011;407;48.884;9.126;2023-07-22T05:22:02;6.97;;;2.17;;
842;SDS011;407;48.884;9.126;2023-07-22T05:24:28;6.40;;;2.00;;
842;SDS011;407;48.884;9.126;2023-07-22T05:26:54;6.97;;;2.30;;
842;SDS011;407;48.884;9.126;2023-07-22T05:29:19;7.20;;;2.20;;
842;SDS011;407;48.884;9.126;2023-07-22T05:31:45;8.50;;;2.63;;
842;SDS011;407;48.884;9.126;2023-07-22T05:34:11;7.15;;;2.90;;
842;SDS011;407;48.884;9.126;2023-07-22T05:36:37;6.97;;;2.22;;
842;SDS011;407;48.884;9.126;2023-07-22T05:39:03;6.80;;;2.17;;
842;SDS011;407;48.884;9.126;2023-07-22T05:41:28;6.75;;;2.45;;
842;SDS011;407;48.884;9.126;2023-07-22T05:43:54;9.10;;;2.58;;
842;SDS011;407;48.884;9.126;2023-07-22T05:46:19;7.03;;;2.22;;
842;SDS011;407;48.884;9.126;2023-07-22T05:48:45;6.90;;;2.60;;
842;SDS011;407;48.884;9.126;2023-07-22T05:51:10;8.40;;;2.17;;
842;SDS011;407;48.884;9.126;2023-07-22T05:53:36;8.10;;;2.60;;
842;SDS011;407;48.884;9.126;2023-07-22T05:56:01;7.38;;;2.35;;
842;SDS011;407;48.884;9.126;2023-07-22T05:58:27;6.70;;;2.47;;
842;SDS011;407;48.884;9.126;2023-07-22T06:00:55;7.07;;;2.60;;
842;SDS011;407;48.884;9.126;2023-07-22T06:03:21;6.30;;;1.73;;
842;SDS011;407;48.884;9.126;2023-07-22T06:05:46;7.70;;;2.43;;
842;SDS011;407;48.884;9.126;2023-07-22T06:08:12;6.00;;;1.80;;
842;SDS011;407;48.884;9.126;2023-07-22T06:10:39;7.00;;;2.10;;
842;SDS011;407;48.884;9.126;2023-07-22T06:13:05;6.35;;;2.50;;
842;SDS011;407;48.884;9.126;2023-07-22T06:15:31;6.33;;;1.90;;
842;SDS011;407;48.884;9.126;2023-07-22T06:17:57;6.03;;;1.63;;
842;SDS011;407;48.884;9.126;2023-07-22T06:20:23;7.30;;;2.10;;
842;SDS011;407;48.884;9.126;2023-07-22T06:22:48;8.10;;;1.70;;
842;SDS011;407;48.884;9.126;2023-07-22T06:25:14;7.30;;;2.20;;
842;SDS011;407;48.884;9.126;2023-07-22T06:27:39;9.43;;;2.00;;
842;SDS011;407;48.884;9.126;2023-07-22T06:30:05;5.80;;;1.30;;
842;SDS011;407;48.884;9.126;2023-07-22T06:32:31;5.32;;;1.40;;
842;SDS011;407;48.884;9.126;2023-07-22T06:34:57;5.63;;;1.50;;
842;SDS011;407;48.884;9.126;2023-07-22T06:37:23;6.05;;;1.60;;
842;SDS011;407;48.884;9.126;2023-07-22T06:39:49;5.50;;;1.30;;
842;SDS011;407;48.884;9.126;2023-07-22T06:42:16;7.13;;;1.80;;
842;SDS011;407;48.884;9.126;2023-07-22T06:44:42;6.07;;;1.20;;
842;SDS011;407;48.884;9.126;2023-07-22T06:47:08;6.68;;;1.60;;
842;SDS011;407;48.884;9.126;2023-07-22T06:49:33;6.00;;;1.00;;
842;SDS011;407;48.884;9.126;2023-07-22T06:51:59;7.43;;;1.70;;
842;SDS011;407;48.884;9.126;2023-07-22T06:54:26;7.20;;;1.30;;
842;SDS011;407;48.884;9.126;2023-07-22T06:56:52;6.00;;;1.50;;
842;SDS011;407;48.884;9.126;2023-07-22T06:59:17;8.40;;;2.00;;
842;SDS011;407;48.884;9.126;2023-07-22T07:01:43;6.43;;;1.30;;
842;SDS011;407;48.884;9.126;2023-07-22T07:04:08;5.63;;;1.70;;
842;SDS011;407;48.884;9.126;2023-07-22T07:06:34;6.30;;;1.27;;
842;SDS011;407;48.884;9.126;2023-07-22T07:09:00;6.60;;;1.40;;
842;SDS011;407;48.884;9.126;2023-07-22T07:11:25;5.50;;;1.30;;
842;SDS011;407;48.884;9.126;2023-07-22T07:13:51;6.10;;;1.50;;
842;SDS011;407;48.884;9.126;2023-07-22T07:18:50;6.80;;;1.43;;
842;SDS011;407;48.884;9.126;2023-07-22T07:21:17;8.48;;;1.80;;
842;SDS011;407;48.884;9.126;2023-07-22T07:23:46;5.40;;;1.40;;
842;SDS011;407;48.884;9.126;2023-07-22T07:26:14;5.72;;;1.52;;
842;SDS011;407;48.884;9.126;2023-07-22T07:28:40;6.00;;;1.20;;
842;SDS011;407;48.884;9.126;2023-07-22T07:31:06;5.70;;;1.40;;
842;SDS011;407;48.884;9.126;2023-07-22T07:33:32;6.20;;;1.70;;
842;SDS011;407;48.884;9.126;2023-07-22T07:35:58;7.20;;;1.80;;
842;SDS011;407;48.884;9.126;2023-07-22T07:38:24;5.47;;;1.45;;
842;SDS011;407;48.884;9.126;2023-07-22T07:40:55;6.72;;;1.60;;
842;SDS011;407;48.884;9.126;2023-07-22T07:43:22;6.15;;;1.30;;
842;SDS011;407;48.884;9.126;2023-07-22T07:45:48;6.43;;;1.77;;
842;SDS011;407;48.884;9.126;2023-07-22T07:48:13;6.90;;;1.30;;
842;SDS011;407;48.884;9.126;2023-07-22T07:50:39;5.85;;;1.60;;
842;SDS011;407;48.884;9.126;2023-07-22T07:53:04;5.73;;;1.40;;
842;SDS011;407;48.884;9.126;2023-07-22T07:55:30;6.20;;;1.70;;
842;SDS011;407;48.884;9.126;2023-07-22T07:57:55;5.70;;;1.53;;
842;SDS011;407;48.884;9.126;2023-07-22T08:00:21;7.50;;;1.90;;
842;SDS011;407;48.884;9.126;2023-07-22T08:02:46;6.87;;;1.83;;
842;SDS011;407;48.884;9.126;2023-07-22T08:05:12;5.78;;;1.40;;
842;SDS011;407;48.884;9.126;2023-07-22T08:07:38;6.43;;;2.00;;
842;SDS011;407;48.884;9.126;2023-07-22T08:10:05;6.43;;;1.90;;
842;SDS011;407;48.884;9.126;2023-07-22T08:12:32;6.13;;;1.98;;
842;SDS011;407;48.884;9.126;2023-07-22T08:14:58;5.90;;;1.90;;
842;SDS011;407;48.884;9.126;2023-07-22T08:17:24;6.22;;;1.80;;
842;SDS011;407;48.884;9.126;2023-07-22T08:19:52;9.25;;;1.83;;
842;SDS011;407;48.884;9.126;2023-07-22T08:22:18;6.10;;;1.75;;
842;SDS011;407;48.884;9.126;2023-07-22T08:24:43;6.50;;;2.00;;
842;SDS011;407;48.884;9.126;2023-07-22T08:27:09;6.20;;;1.60;;
842;SDS011;407;48.884;9.126;2023-07-22T08:29:35;5.53;;;1.90;;
842;SDS011;407;48.884;9.126;2023-07-22T08:32:01;6.07;;;1.60;;
842;SDS011;407;48.884;9.126;2023-07-22T08:34:27;5.78;;;1.70;;
842;SDS011;407;48.884;9.126;2023-07-22T08:36:53;5.50;;;1.35;;
842;SDS011;407;48.884;9.126;2023-07-22T08:39:18;6.30;;;1.67;;
842;SDS011;407;48.884;9.126;2023-07-22T08:41:47;7.00;;;1.80;;
842;SDS011;407;48.884;9.126;2023-07-22T08:44:14;5.95;;;1.27;;
842;SDS011;407;48.884;9.126;2023-07-22T08:46:45;7.28;;;1.38;;
842;SDS011;407;48.884;9.126;2023-07-22T08:49:12;7.00;;;1.55;;
842;SDS011;407;48.884;9.126;2023-07-22T08:51:38;7.03;;;2.30;;
842;SDS011;407;48.884;9.126;2023-07-22T08:54:04;6.73;;;1.90;;
842;SDS011;407;48.884;9.126;2023-07-22T08:56:31;6.60;;;2.00;;
842;SDS011;407;48.884;9.126;2023-07-22T08:58:57;7.43;;;1.90;;
842;SDS011;407;48.884;9.126;2023-07-22T09:01:23;6.47;;;1.70;;
842;SDS011;407;48.884;9.126;2023-07-22T09:03:49;6.32;;;1.67;;
842;SDS011;407;48.884;9.126;2023-07-22T09:06:18;5.82;;;1.30;;
842;SDS011;407;48.884;9.126;2023-07-22T09:08:44;7.13;;;1.25;;
842;SDS011;407;48.884;9.126;2023-07-22T09:11:10;6.05;;;1.77;;
842;SDS011;407;48.884;9.126;2023-07-22T09:13:36;7.10;;;1.60;;
842;SDS011;407;48.884;9.126;2023-07-22T09:16:04;5.60;;;1.40;;
842;SDS011;407;48.884;9.126;2023-07-22T09:18:34;5.50;;;1.45;;
842;SDS011;407;48.884;9.126;2023-07-22T09:20:59;5.28;;;1.27;;
842;SDS011;407;48.884;9.126;2023-07-22T09:23:35;5.30;;;1.40;;
842;SDS011;407;48.884;9.126;2023-07-22T09:28:49;6.90;;;1.43;;
842;SDS011;407;48.884;9.126;2023-07-22T09:31:16;6.63;;;1.70;;
842;SDS011;407;48.884;9.126;2023-07-22T09:33:42;6.45;;;1.25;;
842;SDS011;407;48.884;9.126;2023-07-22T09:36:09;6.07;;;1.45;;
842;SDS011;407;48.884;9.126;2023-07-22T09:38:35;5.85;;;1.50;;
842;SDS011;407;48.884;9.126;2023-07-22T09:41:00;5.93;;;1.33;;
842;SDS011;407;48.884;9.126;2023-07-22T09:43:26;6.30;;;1.40;;
842;SDS011;407;48.884;9.126;2023-07-22T09:45:52;7.60;;;1.80;;
842;SDS011;407;48.884;9.126;2023-07-22T09:48:20;7.85;;;1.70;;
842;SDS011;407;48.884;9.126;2023-07-22T09:50:55;8.18;;;1.17;;
842;SDS011;407;48.884;9.126;2023-07-22T09:53:21;5.70;;;1.50;;
842;SDS011;407;48.884;9.126;2023-07-22T09:55:47;5.80;;;1.33;;
842;SDS011;407;48.884;9.126;2023-07-22T09:58:12;6.33;;;1.70;;
842;SDS011;407;48.884;9.126;2023-07-22T10:00:39;5.28;;;1.17;;
842;SDS011;407;48.884;9.126;2023-07-22T10:03:09;6.25;;;1.40;;
842;SDS011;407;48.884;9.126;2023-07-22T10:05:37;6.10;;;1.20;;
842;SDS011;407;48.884;9.126;2023-07-22T10:08:04;5.20;;;1.00;;
842;SDS011;407;48.884;9.126;2023-07-22T10:13:02;5.30;;;1.00;;
842;SDS011;407;48.884;9.126;2023-07-22T10:15:29;5.90;;;1.30;;
842;SDS011;407;48.884;9.126;2023-07-22T10:17:56;4.90;;;0.90;;
842;SDS011;407;48.884;9.126;2023-07-22T10:20:22;5.60;;;1.20;;
842;SDS011;407;48.884;9.126;2023-07-22T10:22:49;5.45;;;1.23;;
842;SDS011;407;48.884;9.126;2023-07-22T10:25:16;5.32;;;0.90;;
842;SDS011;407;48.884;9.126;2023-07-22T10:27:43;5.10;;;0.98;;
842;SDS011;407;48.884;9.126;2023-07-22T10:30:10;5.50;;;0.93;;
842;SDS011;407;48.884;9.126;2023-07-22T10:32:40;5.40;;;1.00;;
842;SDS011;407;48.884;9.126;2023-07-22T10:35:12;6.15;;;1.08;;
842;SDS011;407;48.884;9.126;2023-07-22T10:38:17;4.78;;;1.00;;
842;SDS011;407;48.884;9.126;2023-07-22T10:40:51;6.20;;;1.40;;
842;SDS011;407;48.884;9.126;2023-07-22T10:43:20;6.07;;;1.33;;
842;SDS011;407;48.884;9.126;2023-07-22T10:45:55;5.22;;;1.10;;
842;SDS011;407;48.884;9.126;2023-07-22T10:48:23;5.60;;;1.30;;
842;SDS011;407;48.884;9.126;2023-07-22T10:50:53;5.40;;;1.10;;
842;SDS011;407;48.884;9.126;2023-07-22T10:58:27;5.10;;;1.02;;
842;SDS011;407;48.884;9.126;2023-07-22T11:00:56;5.40;;;1.30;;
842;SDS011;407;48.884;9.126;2023-07-22T11:03:21;5.53;;;1.23;;
842;SDS011;407;48.884;9.126;2023-07-22T11:05:50;5.30;;;1.30;;
842;SDS011;407;48.884;9.126;2023-07-22T11:08:34;6.82;;;1.50;;
842;SDS011;407;48.884;9.126;2023-07-22T11:11:04;5.30;;;0.98;;
842;SDS011;407;48.884;9.126;2023-07-22T11:13:30;5.20;;;0.80;;
842;SDS011;407;48.884;9.126;2023-07-22T11:16:02;5.68;;;0.90;;
842;SDS011;407;48.884;9.126;2023-07-22T11:18:38;5.20;;;1.10;;
842;SDS011;407;48.884;9.126;2023-07-22T11:21:09;6.90;;;1.20;;
842;SDS011;407;48.884;9.126;2023-07-22T11:23:35;8.48;;;0.98;;
842;SDS011;407;48.884;9.126;2023-07-22T11:26:01;5.55;;;1.10;;
842;SDS011;407;48.884;9.126;2023-07-22T11:28:28;5.60;;;1.30;;
842;SDS011;407;48.884;9.126;2023-07-22T11:30:53;5.70;;;1.30;;
842;SDS011;407;48.884;9.126;2023-07-22T11:33:19;5.80;;;1.42;;
842;SDS011;407;48.884;9.126;2023-07-22T11:35:44;5.97;;;0.90;;
842;SDS011;407;48.884;9.126;2023-07-22T11:38:13;5.40;;;1.20;;
842;SDS011;407;48.884;9.126;2023-07-22T11:40:39;5.20;;;1.00;;
842;SDS011;407;48.884;9.126;2023-07-22T11:43:04;5.63;;;1.10;;
842;SDS011;407;48.884;9.126;2023-07-22T11:45:30;6.30;;;1.40;;
842;SDS011;407;48.884;9.126;2023-07-22T11:47:57;5.85;;;1.10;;
842;SDS011;407;48.884;9.126;2023-07-22T11:50:32;8.60;;;1.23;;
842;SDS011;407;48.884;9.126;2023-07-22T11:52:58;5.73;;;1.40;;
842;SDS011;407;48.884;9.126;2023-07-22T11:55:24;5.68;;;1.15;;
842;SDS011;407;48.884;9.126;2023-07-22T11:57:53;5.38;;;1.48;;
842;SDS011;407;48.884;9.126;2023-07-22T12:00:19;5.18;;;1.08;;
842;SDS011;407;48.884;9.126;2023-07-22T12:02:45;5.30;;;1.20;;
842;SDS011;407;48.884;9.126;2023-07-22T12:05:12;5.30;;;1.20;;
842;SDS011;407;48.884;9.126;2023-07-22T12:07:45;7.20;;;1.50;;
842;SDS011;407;48.884;9.126;2023-07-22T12:10:11;5.65;;;1.15;;
842;SDS011;407;48.884;9.126;2023-07-22T12:12:43;6.00;;;1.30;;
842;SDS011;407;48.884;9.126;2023-07-22T12:15:15;5.72;;;1.30;;
842;SDS011;407;48.884;9.126;2023-07-22T12:20:41;5.88;;;1.50;;
842;SDS011;407;48.884;9.126;2023-07-22T12:23:06;5.70;;;1.20;;
842;SDS011;407;48.884;9.126;2023-07-22T12:25:32;5.30;;;1.40;;
842;SDS011;407;48.884;9.126;2023-07-22T12:27:57;6.60;;;1.60;;
842;SDS011;407;48.884;9.126;2023-07-22T12:30:23;7.50;;;1.40;;
842;SDS011;407;48.884;9.126;2023-07-22T12:32:49;5.57;;;1.27;;
842;SDS011;407;48.884;9.126;2023-07-22T12:35:14;5.70;;;1.50;;
842;SDS011;407;48.884;9.126;2023-07-22T12:37:40;5.70;;;1.20;;
842;SDS011;407;48.884;9.126;2023-07-22T12:40:05;6.10;;;1.40;;
842;SDS011;407;48.884;9.126;2023-07-22T12:42:33;5.75;;;1.20;;
842;SDS011;407;48.884;9.126;2023-07-22T12:44:59;6.28;;;1.10;;
842;SDS011;407;48.884;9.126;2023-07-22T12:47:25;6.40;;;1.50;;
842;SDS011;407;48.884;9.126;2023-07-22T12:49:51;5.57;;;1.23;;
842;SDS011;407;48.884;9.126;2023-07-22T12:52:16;6.23;;;1.63;;
842;SDS011;407;48.884;9.126;2023-07-22T12:54:43;5.68;;;1.30;;
842;SDS011;407;48.884;9.126;2023-07-22T12:57:08;7.60;;;1.42;;
842;SDS011;407;48.884;9.126;2023-07-22T12:59:34;6.28;;;1.60;;
842;SDS011;407;48.884;9.126;2023-07-22T13:01:59;7.10;;;1.80;;
842;SDS011;407;48.884;9.126;2023-07-22T13:04:25;5.50;;;1.10;;
842;SDS011;407;48.884;9.126;2023-07-22T13:06:50;5.80;;;1.40;;
842;SDS011;407;48.884;9.126;2023-07-22T13:09:19;6.93;;;1.80;;
842;SDS011;407;48.884;9.126;2023-07-22T13:11:45;6.25;;;1.58;;
842;SDS011;407;48.884;9.126;2023-07-22T13:14:11;5.65;;;1.40;;
842;SDS011;407;48.884;9.126;2023-07-22T13:16:37;6.50;;;1.30;;
842;SDS011;407;48.884;9.126;2023-07-22T13:19:02;6.90;;;1.70;;
842;SDS011;407;48.884;9.126;2023-07-22T13:21:28;6.03;;;1.40;;
842;SDS011;407;48.884;9.126;2023-07-22T13:23:54;5.53;;;1.20;;
842;SDS011;407;48.884;9.126;2023-07-22T13:26:20;5.53;;;1.30;;
842;SDS011;407;48.884;9.126;2023-07-22T13:28:45;6.40;;;1.58;;
842;SDS011;407;48.884;9.126;2023-07-22T13:31:11;8.85;;;1.55;;
842;SDS011;407;48.884;9.126;2023-07-22T13:33:36;5.57;;;1.50;;
842;SDS011;407;48.884;9.126;2023-07-22T13:36:02;6.30;;;1.50;;
842;SDS011;407;48.884;9.126;2023-07-22T13:38:28;6.13;;;1.80;;
842;SDS011;407;48.884;9.126;2023-07-22T13:40:53;7.73;;;1.50;;
842;SDS011;407;48.884;9.126;2023-07-22T13:43:19;5.30;;;1.40;;
842;SDS011;407;48.884;9.126;2023-07-22T13:45:44;6.83;;;1.27;;
842;SDS011;407;48.884;9.126;2023-07-22T13:48:10;5.88;;;1.52;;
842;SDS011;407;48.884;9.126;2023-07-22T13:50:36;6.27;;;1.67;;
842;SDS011;407;48.884;9.126;2023-07-22T13:53:02;6.37;;;1.60;;
842;SDS011;407;48.884;9.126;2023-07-22T13:55:27;5.60;;;1.40;;
842;SDS011;407;48.884;9.126;2023-07-22T13:57:53;5.27;;;1.40;;
842;SDS011;407;48.884;9.126;2023-07-22T14:00:19;5.80;;;1.50;;
842;SDS011;407;48.884;9.126;2023-07-22T14:02:44;5.77;;;1.60;;
842;SDS011;407;48.884;9.126;2023-07-22T14:05:10;5.80;;;1.50;;
842;SDS011;407;48.884;9.126;2023-07-22T14:07:36;5.40;;;1.40;;
842;SDS011;407;48.884;9.126;2023-07-22T14:10:01;5.97;;;1.60;;
842;SDS011;407;48.884;9.126;2023-07-22T14:12:29;5.60;;;1.50;;
842;SDS011;407;48.884;9.126;2023-07-22T14:14:54;5.95;;;1.67;;
842;SDS011;407;48.884;9.126;2023-07-22T14:17:20;6.20;;;1.40;;
842;SDS011;407;48.884;9.126;2023-07-22T14:19:45;6.83;;;1.50;;
842;SDS011;407;48.884;9.126;2023-07-22T14:22:11;5.70;;;1.30;;
842;SDS011;407;48.884;9.126;2023-07-22T14:24:36;6.53;;;1.60;;
842;SDS011;407;48.884;9.126;2023-07-22T14:27:02;5.87;;;1.90;;
842;SDS011;407;48.884;9.126;2023-07-22T14:29:27;5.00;;;1.50;;
842;SDS011;407;48.884;9.126;2023-07-22T14:31:55;7.15;;;1.90;;
842;SDS011;407;48.884;9.126;2023-07-22T14:34:22;6.30;;;1.50;;
842;SDS011;407;48.884;9.126;2023-07-22T14:36:47;6.00;;;1.70;;
842;SDS011;407;48.884;9.126;2023-07-22T14:39:13;8.10;;;1.50;;
842;SDS011;407;48.884;9.126;2023-07-22T14:41:40;7.43;;;1.87;;
842;SDS011;407;48.884;9.126;2023-07-22T14:44:06;6.70;;;1.73;;
842;SDS011;407;48.884;9.126;2023-07-22T14:46:31;6.45;;;1.52;;
842;SDS011;407;48.884;9.126;2023-07-22T14:48:57;5.77;;;1.67;;
842;SDS011;407;48.884;9.126;2023-07-22T14:51:22;6.63;;;1.40;;
842;SDS011;407;48.884;9.126;2023-07-22T14:53:48;6.83;;;1.97;;
842;SDS011;407;48.884;9.126;2023-07-22T14:56:13;7.43;;;1.77;;
842;SDS011;407;48.884;9.126;2023-07-22T14:58:39;6.10;;;1.70;;
842;SDS011;407;48.884;9.126;2023-07-22T15:01:05;6.90;;;1.90;;
842;SDS011;407;48.884;9.126;2023-07-22T15:03:31;7.05;;;1.90;;
842;SDS011;407;48.884;9.126;2023-07-22T15:05:57;6.00;;;1.53;;
842;SDS011;407;48.884;9.126;2023-07-22T15:08:22;6.23;;;1.43;;
842;SDS011;407;48.884;9.126;2023-07-22T15:10:48;6.00;;;1.65;;
842;SDS011;407;48.884;9.126;2023-07-22T15:13:13;6.15;;;1.42;;
842;SDS011;407;48.884;9.126;2023-07-22T15:15:39;6.27;;;1.40;;
842;SDS011;407;48.884;9.126;2023-07-22T15:18:04;6.10;;;1.40;;
842;SDS011;407;48.884;9.126;2023-07-22T15:20:30;6.10;;;1.42;;
842;SDS011;407;48.884;9.126;2023-07-22T15:22:56;6.10;;;1.80;;
842;SDS011;407;48.884;9.126;2023-07-22T15:25:21;7.93;;;1.90;;
842;SDS011;407;48.884;9.126;2023-07-22T15:27:47;5.63;;;1.33;;
842;SDS011;407;48.884;9.126;2023-07-22T15:30:13;5.73;;;1.37;;
842;SDS011;407;48.884;9.126;2023-07-22T15:32:38;8.00;;;1.60;;
842;SDS011;407;48.884;9.126;2023-07-22T15:35:04;6.00;;;1.80;;
842;SDS011;407;48.884;9.126;2023-07-22T15:37:30;6.30;;;1.50;;
842;SDS011;407;48.884;9.126;2023-07-22T15:39:55;5.50;;;1.58;;
842;SDS011;407;48.884;9.126;2023-07-22T15:42:21;7.37;;;2.00;;
842;SDS011;407;48.884;9.126;2023-07-22T15:44:46;6.33;;;1.87;;
842;SDS011;407;48.884;9.126;2023-07-22T15:47:12;6.30;;;1.90;;
842;SDS011;407;48.884;9.126;2023-07-22T15:49:37;8.17;;;1.60;;
842;SDS011;407;48.884;9.126;2023-07-22T15:52:03;6.83;;;1.60;;
842;SDS011;407;48.884;9.126;2023-07-22T15:54:29;7.10;;;1.60;;